Ambler, Alaska
Current Conditions -  °F | °C
As of 5:56 AM on Wednesday 22 Oct 2014 (Local Time) from PAFM Reporting Station
Overcast Overcast  
Wind Chill: 23°   Ceiling: 7000
Heat Index: 23°   Visibility: 10mi
Dew Point: 14°   Wind: 0mph
Humidity: 68%   Direction: NA
Pressure: 29.72"   Gusts: NA
Location:  67.09°N, 157.85°W
Report Text: PAFM 221356Z AUTO 00000KT 10SM OVC070 M05/M10 A2972 RMK AO1
Loading
Personal Weather Stations






























Interactive Weather Map
Tropical Storm Tracking
New forecast layout! Learn more

10-Day Weather Forecast

Advertisements
Track Severe Weather on mobile